<?xml version="1.0" encoding="utf-8"?>
<gpx xmlns:xsi="http://www.w3.org/2001/XMLSchema-instance" xmlns:xsd="http://www.w3.org/2001/XMLSchema" version="1.1" creator="Shapelink.com" xmlns="http://www.topografix.com/GPX/1/1" xmlns:gpxtpx="http://www.garmin.com/xmlschemas/TrackPointExtension/v1">
  <metadata>
    <name>Promenad 4.83 km, 2017-03-12</name>
    <desc></desc>
    <author><name>Morten Hedlund</name></author> 
    <time>2017-03-12T13:17:18Z</time>
  </metadata>
  <trk>
    <name>Promenad 4.83 km, 2017-03-12</name>
    <trkseg>
      <trkpt lat="60.249923320064" lon="11.029568201756">
        <ele>186</ele>
        <time>2017-03-12T13:17:18Z</time>
      </trkpt>
      <trkpt lat="60.249760459747" lon="11.029382961766">
        <ele>188.8</ele>
        <time>2017-03-12T13:17:31Z</time>
      </trkpt>
      <trkpt lat="60.249609837004" lon="11.029180119786">
        <ele>191</ele>
        <time>2017-03-12T13:17:45Z</time>
      </trkpt>
      <trkpt lat="60.24953138242" lon="11.029091439284">
        <ele>191.6</ele>
        <time>2017-03-12T13:17:52Z</time>
      </trkpt>
      <trkpt lat="60.249402384979" lon="11.029322109172">
        <ele>191.4</ele>
        <time>2017-03-12T13:18:05Z</time>
      </trkpt>
      <trkpt lat="60.24930339474" lon="11.029635843689">
        <ele>191.8</ele>
        <time>2017-03-12T13:18:16Z</time>
      </trkpt>
      <trkpt lat="60.249195352049" lon="11.029924432506">
        <ele>192.4</ele>
        <time>2017-03-12T13:18:28Z</time>
      </trkpt>
      <trkpt lat="60.249084040417" lon="11.030236239186">
        <ele>192.6</ele>
        <time>2017-03-12T13:18:40Z</time>
      </trkpt>
      <trkpt lat="60.248968621654" lon="11.030546118029">
        <ele>192.4</ele>
        <time>2017-03-12T13:18:50Z</time>
      </trkpt>
      <trkpt lat="60.248851526511" lon="11.030820625254">
        <ele>193.2</ele>
        <time>2017-03-12T13:19:00Z</time>
      </trkpt>
      <trkpt lat="60.248734850463" lon="11.031096305945">
        <ele>193.4</ele>
        <time>2017-03-12T13:19:11Z</time>
      </trkpt>
      <trkpt lat="60.248621191899" lon="11.031378943613">
        <ele>192.2</ele>
        <time>2017-03-12T13:19:22Z</time>
      </trkpt>
      <trkpt lat="60.24848196854" lon="11.031649176069">
        <ele>191</ele>
        <time>2017-03-12T13:19:34Z</time>
      </trkpt>
      <trkpt lat="60.248368896709" lon="11.031937513429">
        <ele>190.4</ele>
        <time>2017-03-12T13:19:45Z</time>
      </trkpt>
      <trkpt lat="60.248256076335" lon="11.032236411983">
        <ele>190.8</ele>
        <time>2017-03-12T13:19:58Z</time>
      </trkpt>
      <trkpt lat="60.248146943997" lon="11.032540423496">
        <ele>191.6</ele>
        <time>2017-03-12T13:20:09Z</time>
      </trkpt>
      <trkpt lat="60.2480997539" lon="11.032675539724">
        <ele>192.4</ele>
        <time>2017-03-12T13:20:15Z</time>
      </trkpt>
      <trkpt lat="60.247991543571" lon="11.032999332521">
        <ele>192.2</ele>
        <time>2017-03-12T13:20:29Z</time>
      </trkpt>
      <trkpt lat="60.247884506708" lon="11.033312731762">
        <ele>191</ele>
        <time>2017-03-12T13:20:39Z</time>
      </trkpt>
      <trkpt lat="60.247757940018" lon="11.033605762986">
        <ele>190.4</ele>
        <time>2017-03-12T13:20:51Z</time>
      </trkpt>
      <trkpt lat="60.247645874015" lon="11.033903907169">
        <ele>190.4</ele>
        <time>2017-03-12T13:21:02Z</time>
      </trkpt>
      <trkpt lat="60.247621398867" lon="11.03396333484">
        <ele>190.2</ele>
        <time>2017-03-12T13:21:05Z</time>
      </trkpt>
      <trkpt lat="60.247501872973" lon="11.034262903946">
        <ele>191</ele>
        <time>2017-03-12T13:21:22Z</time>
      </trkpt>
      <trkpt lat="60.247390393703" lon="11.034552498591">
        <ele>191.2</ele>
        <time>2017-03-12T13:21:34Z</time>
      </trkpt>
      <trkpt lat="60.247257708226" lon="11.03484008158">
        <ele>190.8</ele>
        <time>2017-03-12T13:21:46Z</time>
      </trkpt>
      <trkpt lat="60.24712829169" lon="11.035111571321">
        <ele>189.4</ele>
        <time>2017-03-12T13:21:58Z</time>
      </trkpt>
      <trkpt lat="60.247007257054" lon="11.035397226473">
        <ele>188.4</ele>
        <time>2017-03-12T13:22:09Z</time>
      </trkpt>
      <trkpt lat="60.246903572951" lon="11.035717247415">
        <ele>186.8</ele>
        <time>2017-03-12T13:22:21Z</time>
      </trkpt>
      <trkpt lat="60.24688102564" lon="11.036080770418">
        <ele>186.2</ele>
        <time>2017-03-12T13:22:33Z</time>
      </trkpt>
      <trkpt lat="60.246918241276" lon="11.036444461059">
        <ele>188.4</ele>
        <time>2017-03-12T13:22:44Z</time>
      </trkpt>
      <trkpt lat="60.246999126611" lon="11.036798261058">
        <ele>189</ele>
        <time>2017-03-12T13:22:56Z</time>
      </trkpt>
      <trkpt lat="60.247102475438" lon="11.037129262289">
        <ele>188.8</ele>
        <time>2017-03-12T13:23:08Z</time>
      </trkpt>
      <trkpt lat="60.247201633315" lon="11.037464286832">
        <ele>188.8</ele>
        <time>2017-03-12T13:23:20Z</time>
      </trkpt>
      <trkpt lat="60.247308837816" lon="11.037794952787">
        <ele>189.4</ele>
        <time>2017-03-12T13:23:32Z</time>
      </trkpt>
      <trkpt lat="60.247426771149" lon="11.038110279865">
        <ele>193.6</ele>
        <time>2017-03-12T13:23:43Z</time>
      </trkpt>
      <trkpt lat="60.247554176029" lon="11.038403562546">
        <ele>196</ele>
        <time>2017-03-12T13:23:55Z</time>
      </trkpt>
      <trkpt lat="60.247692477379" lon="11.038663149989">
        <ele>197.8</ele>
        <time>2017-03-12T13:24:06Z</time>
      </trkpt>
      <trkpt lat="60.247826755417" lon="11.038902704691">
        <ele>198.6</ele>
        <time>2017-03-12T13:24:16Z</time>
      </trkpt>
      <trkpt lat="60.247965308224" lon="11.039143097583">
        <ele>199.2</ele>
        <time>2017-03-12T13:24:27Z</time>
      </trkpt>
      <trkpt lat="60.24810394485" lon="11.039400757189">
        <ele>200.4</ele>
        <time>2017-03-12T13:24:38Z</time>
      </trkpt>
      <trkpt lat="60.24816848548" lon="11.039534448494">
        <ele>200.4</ele>
        <time>2017-03-12T13:24:46Z</time>
      </trkpt>
      <trkpt lat="60.248299075482" lon="11.039782385096">
        <ele>202.6</ele>
        <time>2017-03-12T13:25:00Z</time>
      </trkpt>
      <trkpt lat="60.248430252217" lon="11.040042978367">
        <ele>201.4</ele>
        <time>2017-03-12T13:25:12Z</time>
      </trkpt>
      <trkpt lat="60.248560506943" lon="11.04032352056">
        <ele>201.2</ele>
        <time>2017-03-12T13:25:24Z</time>
      </trkpt>
      <trkpt lat="60.248666537978" lon="11.040643122407">
        <ele>201.2</ele>
        <time>2017-03-12T13:25:35Z</time>
      </trkpt>
      <trkpt lat="60.248755469937" lon="11.040968759222">
        <ele>200.6</ele>
        <time>2017-03-12T13:25:46Z</time>
      </trkpt>
      <trkpt lat="60.248844820991" lon="11.041307471801">
        <ele>200.2</ele>
        <time>2017-03-12T13:25:57Z</time>
      </trkpt>
      <trkpt lat="60.248924029946" lon="11.041654650099">
        <ele>202.6</ele>
        <time>2017-03-12T13:26:08Z</time>
      </trkpt>
      <trkpt lat="60.248935513149" lon="11.041697230151">
        <ele>203</ele>
        <time>2017-03-12T13:26:10Z</time>
      </trkpt>
      <trkpt lat="60.249006759299" lon="11.042044911363">
        <ele>205.6</ele>
        <time>2017-03-12T13:26:26Z</time>
      </trkpt>
      <trkpt lat="60.249088566643" lon="11.042401728846">
        <ele>206.2</ele>
        <time>2017-03-12T13:26:38Z</time>
      </trkpt>
      <trkpt lat="60.249171379815" lon="11.042740609063">
        <ele>204.8</ele>
        <time>2017-03-12T13:26:50Z</time>
      </trkpt>
      <trkpt lat="60.249283529637" lon="11.04302835969">
        <ele>203.8</ele>
        <time>2017-03-12T13:27:02Z</time>
      </trkpt>
      <trkpt lat="60.249408503766" lon="11.043306722589">
        <ele>204</ele>
        <time>2017-03-12T13:27:14Z</time>
      </trkpt>
      <trkpt lat="60.249531969153" lon="11.043577960873">
        <ele>203.2</ele>
        <time>2017-03-12T13:27:25Z</time>
      </trkpt>
      <trkpt lat="60.249652165599" lon="11.043847103682">
        <ele>200.8</ele>
        <time>2017-03-12T13:27:37Z</time>
      </trkpt>
      <trkpt lat="60.249764483059" lon="11.04413812325">
        <ele>202.6</ele>
        <time>2017-03-12T13:27:48Z</time>
      </trkpt>
      <trkpt lat="60.249866742239" lon="11.044455126708">
        <ele>202.4</ele>
        <time>2017-03-12T13:28:00Z</time>
      </trkpt>
      <trkpt lat="60.249960368062" lon="11.044797611142">
        <ele>202</ele>
        <time>2017-03-12T13:28:12Z</time>
      </trkpt>
      <trkpt lat="60.250042007768" lon="11.045119727559">
        <ele>202.8</ele>
        <time>2017-03-12T13:28:26Z</time>
      </trkpt>
      <trkpt lat="60.25011392447" lon="11.045463553097">
        <ele>204</ele>
        <time>2017-03-12T13:28:38Z</time>
      </trkpt>
      <trkpt lat="60.250207969388" lon="11.045771420284">
        <ele>204</ele>
        <time>2017-03-12T13:28:50Z</time>
      </trkpt>
      <trkpt lat="60.250289776732" lon="11.046117006021">
        <ele>203.2</ele>
        <time>2017-03-12T13:29:03Z</time>
      </trkpt>
      <trkpt lat="60.250402345649" lon="11.046425292303">
        <ele>201.2</ele>
        <time>2017-03-12T13:29:16Z</time>
      </trkpt>
      <trkpt lat="60.250536288411" lon="11.046699883347">
        <ele>202</ele>
        <time>2017-03-12T13:29:29Z</time>
      </trkpt>
      <trkpt lat="60.250664699119" lon="11.046958716419">
        <ele>204.2</ele>
        <time>2017-03-12T13:29:42Z</time>
      </trkpt>
      <trkpt lat="60.250786739583" lon="11.047249987444">
        <ele>207.4</ele>
        <time>2017-03-12T13:29:55Z</time>
      </trkpt>
      <trkpt lat="60.250898637948" lon="11.047544275953">
        <ele>211.4</ele>
        <time>2017-03-12T13:30:07Z</time>
      </trkpt>
      <trkpt lat="60.250998969291" lon="11.047857759013">
        <ele>213.4</ele>
        <time>2017-03-12T13:30:19Z</time>
      </trkpt>
      <trkpt lat="60.251112711674" lon="11.048168476046">
        <ele>214.6</ele>
        <time>2017-03-12T13:30:31Z</time>
      </trkpt>
      <trkpt lat="60.251181443254" lon="11.048524874434">
        <ele>211.8</ele>
        <time>2017-03-12T13:30:43Z</time>
      </trkpt>
      <trkpt lat="60.251253359956" lon="11.048883619754">
        <ele>211.8</ele>
        <time>2017-03-12T13:30:55Z</time>
      </trkpt>
      <trkpt lat="60.251321085708" lon="11.049250998431">
        <ele>211</ele>
        <time>2017-03-12T13:31:07Z</time>
      </trkpt>
      <trkpt lat="60.251401887224" lon="11.04957965273">
        <ele>213.8</ele>
        <time>2017-03-12T13:31:20Z</time>
      </trkpt>
      <trkpt lat="60.251446311294" lon="11.04994007443">
        <ele>215</ele>
        <time>2017-03-12T13:31:31Z</time>
      </trkpt>
      <trkpt lat="60.251489478079" lon="11.050294964076">
        <ele>216.2</ele>
        <time>2017-03-12T13:31:42Z</time>
      </trkpt>
      <trkpt lat="60.251526945172" lon="11.050672987766">
        <ele>215.6</ele>
        <time>2017-03-12T13:31:54Z</time>
      </trkpt>
      <trkpt lat="60.251557371469" lon="11.05104480885">
        <ele>213.6</ele>
        <time>2017-03-12T13:32:06Z</time>
      </trkpt>
      <trkpt lat="60.251585953748" lon="11.051405984921">
        <ele>212.2</ele>
        <time>2017-03-12T13:32:17Z</time>
      </trkpt>
      <trkpt lat="60.251622331194" lon="11.051777303091">
        <ele>212.4</ele>
        <time>2017-03-12T13:32:28Z</time>
      </trkpt>
      <trkpt lat="60.251630377818" lon="11.052513988282">
        <ele>210.8</ele>
        <time>2017-03-12T13:32:49Z</time>
      </trkpt>
      <trkpt lat="60.25162434285" lon="11.052882624244">
        <ele>207.6</ele>
        <time>2017-03-12T13:33:00Z</time>
      </trkpt>
      <trkpt lat="60.251617972606" lon="11.053254361509">
        <ele>206.8</ele>
        <time>2017-03-12T13:33:11Z</time>
      </trkpt>
      <trkpt lat="60.251622079737" lon="11.053635989416">
        <ele>206.6</ele>
        <time>2017-03-12T13:33:22Z</time>
      </trkpt>
      <trkpt lat="60.251627947067" lon="11.054027256508">
        <ele>207.2</ele>
        <time>2017-03-12T13:33:33Z</time>
      </trkpt>
      <trkpt lat="60.25162099009" lon="11.054424139473">
        <ele>208</ele>
        <time>2017-03-12T13:33:44Z</time>
      </trkpt>
      <trkpt lat="60.2516201519" lon="11.054814316918">
        <ele>208.4</ele>
        <time>2017-03-12T13:33:56Z</time>
      </trkpt>
      <trkpt lat="60.251614368389" lon="11.055185299812">
        <ele>208.2</ele>
        <time>2017-03-12T13:34:07Z</time>
      </trkpt>
      <trkpt lat="60.251634987863" lon="11.055556617982">
        <ele>207.8</ele>
        <time>2017-03-12T13:34:18Z</time>
      </trkpt>
      <trkpt lat="60.251692571516" lon="11.055909998886">
        <ele>210.6</ele>
        <time>2017-03-12T13:34:30Z</time>
      </trkpt>
      <trkpt lat="60.251738839604" lon="11.056282071427">
        <ele>209.8</ele>
        <time>2017-03-12T13:34:42Z</time>
      </trkpt>
      <trkpt lat="60.251790136832" lon="11.056646767896">
        <ele>208.2</ele>
        <time>2017-03-12T13:34:54Z</time>
      </trkpt>
      <trkpt lat="60.251853671634" lon="11.057019259532">
        <ele>207.6</ele>
        <time>2017-03-12T13:35:05Z</time>
      </trkpt>
      <trkpt lat="60.251891222546" lon="11.057407676778">
        <ele>208</ele>
        <time>2017-03-12T13:35:16Z</time>
      </trkpt>
      <trkpt lat="60.25190346012" lon="11.057786957753">
        <ele>208</ele>
        <time>2017-03-12T13:35:27Z</time>
      </trkpt>
      <trkpt lat="60.251906309966" lon="11.058169507669">
        <ele>208.8</ele>
        <time>2017-03-12T13:35:39Z</time>
      </trkpt>
      <trkpt lat="60.251897257514" lon="11.058537724536">
        <ele>209.4</ele>
        <time>2017-03-12T13:35:50Z</time>
      </trkpt>
      <trkpt lat="60.251929527829" lon="11.058914490941">
        <ele>210.6</ele>
        <time>2017-03-12T13:36:02Z</time>
      </trkpt>
      <trkpt lat="60.251996583029" lon="11.059278097763">
        <ele>211.6</ele>
        <time>2017-03-12T13:36:14Z</time>
      </trkpt>
      <trkpt lat="60.252052574121" lon="11.059653523064">
        <ele>212.4</ele>
        <time>2017-03-12T13:36:26Z</time>
      </trkpt>
      <trkpt lat="60.252122814443" lon="11.059993157652">
        <ele>211.8</ele>
        <time>2017-03-12T13:36:37Z</time>
      </trkpt>
      <trkpt lat="60.252225157442" lon="11.060288116713">
        <ele>210.4</ele>
        <time>2017-03-12T13:36:49Z</time>
      </trkpt>
      <trkpt lat="60.25240553593" lon="11.06033865957">
        <ele>207</ele>
        <time>2017-03-12T13:37:02Z</time>
      </trkpt>
      <trkpt lat="60.252591111196" lon="11.060401188544">
        <ele>204</ele>
        <time>2017-03-12T13:37:16Z</time>
      </trkpt>
      <trkpt lat="60.252775764453" lon="11.06035123242">
        <ele>203.8</ele>
        <time>2017-03-12T13:37:30Z</time>
      </trkpt>
      <trkpt lat="60.252946336118" lon="11.060190048483">
        <ele>205.2</ele>
        <time>2017-03-12T13:37:42Z</time>
      </trkpt>
      <trkpt lat="60.25309117535" lon="11.059934568171">
        <ele>206</ele>
        <time>2017-03-12T13:37:54Z</time>
      </trkpt>
      <trkpt lat="60.253223525551" lon="11.05966224024">
        <ele>206.2</ele>
        <time>2017-03-12T13:38:06Z</time>
      </trkpt>
      <trkpt lat="60.253361323987" lon="11.059428552868">
        <ele>206.2</ele>
        <time>2017-03-12T13:38:18Z</time>
      </trkpt>
      <trkpt lat="60.253484370279" lon="11.059158068955">
        <ele>206.2</ele>
        <time>2017-03-12T13:38:30Z</time>
      </trkpt>
      <trkpt lat="60.253582857604" lon="11.058841903687">
        <ele>205.8</ele>
        <time>2017-03-12T13:38:42Z</time>
      </trkpt>
      <trkpt lat="60.253693331046" lon="11.058526241333">
        <ele>203.8</ele>
        <time>2017-03-12T13:38:56Z</time>
      </trkpt>
      <trkpt lat="60.253822747582" lon="11.058260283646">
        <ele>204</ele>
        <time>2017-03-12T13:39:08Z</time>
      </trkpt>
      <trkpt lat="60.253916373405" lon="11.057940178885">
        <ele>204.6</ele>
        <time>2017-03-12T13:39:21Z</time>
      </trkpt>
      <trkpt lat="60.254059452438" lon="11.057705234228">
        <ele>205.6</ele>
        <time>2017-03-12T13:39:43Z</time>
      </trkpt>
      <trkpt lat="60.254185348576" lon="11.057443048396">
        <ele>205.4</ele>
        <time>2017-03-12T13:39:54Z</time>
      </trkpt>
      <trkpt lat="60.254310993257" lon="11.057141383815">
        <ele>205.2</ele>
        <time>2017-03-12T13:40:06Z</time>
      </trkpt>
      <trkpt lat="60.254419203586" lon="11.056828236031">
        <ele>204.6</ele>
        <time>2017-03-12T13:40:18Z</time>
      </trkpt>
      <trkpt lat="60.254524144974" lon="11.056511400211">
        <ele>203.2</ele>
        <time>2017-03-12T13:40:32Z</time>
      </trkpt>
      <trkpt lat="60.254616513512" lon="11.056195318762">
        <ele>204</ele>
        <time>2017-03-12T13:40:44Z</time>
      </trkpt>
      <trkpt lat="60.254734530664" lon="11.055910334162">
        <ele>204.6</ele>
        <time>2017-03-12T13:40:58Z</time>
      </trkpt>
      <trkpt lat="60.254891020737" lon="11.055700535205">
        <ele>203.8</ele>
        <time>2017-03-12T13:41:11Z</time>
      </trkpt>
      <trkpt lat="60.255033513037" lon="11.055479001588">
        <ele>203.2</ele>
        <time>2017-03-12T13:41:24Z</time>
      </trkpt>
      <trkpt lat="60.255149937628" lon="11.055189071667">
        <ele>200.6</ele>
        <time>2017-03-12T13:41:36Z</time>
      </trkpt>
      <trkpt lat="60.255263344735" lon="11.054900901945">
        <ele>203</ele>
        <time>2017-03-12T13:41:48Z</time>
      </trkpt>
      <trkpt lat="60.255378847317" lon="11.054589933455">
        <ele>201.8</ele>
        <time>2017-03-12T13:42:01Z</time>
      </trkpt>
      <trkpt lat="60.255444142318" lon="11.054229679393">
        <ele>202</ele>
        <time>2017-03-12T13:42:14Z</time>
      </trkpt>
      <trkpt lat="60.255489320759" lon="11.053861881621">
        <ele>202.8</ele>
        <time>2017-03-12T13:42:27Z</time>
      </trkpt>
      <trkpt lat="60.255509856414" lon="11.053489557623">
        <ele>202.8</ele>
        <time>2017-03-12T13:42:39Z</time>
      </trkpt>
      <trkpt lat="60.255543551652" lon="11.053127962457">
        <ele>203.6</ele>
        <time>2017-03-12T13:42:52Z</time>
      </trkpt>
      <trkpt lat="60.255567691524" lon="11.052741892143">
        <ele>203</ele>
        <time>2017-03-12T13:43:05Z</time>
      </trkpt>
      <trkpt lat="60.255574899958" lon="11.052647344311">
        <ele>203</ele>
        <time>2017-03-12T13:43:08Z</time>
      </trkpt>
      <trkpt lat="60.255619575485" lon="11.052271164639">
        <ele>202.6</ele>
        <time>2017-03-12T13:43:21Z</time>
      </trkpt>
      <trkpt lat="60.255656958759" lon="11.051893643863">
        <ele>202.6</ele>
        <time>2017-03-12T13:43:34Z</time>
      </trkpt>
      <trkpt lat="60.255679003156" lon="11.051525343177">
        <ele>201.8</ele>
        <time>2017-03-12T13:43:46Z</time>
      </trkpt>
      <trkpt lat="60.255693252386" lon="11.051136423017">
        <ele>202.4</ele>
        <time>2017-03-12T13:43:58Z</time>
      </trkpt>
      <trkpt lat="60.25570884272" lon="11.050769211978">
        <ele>205.2</ele>
        <time>2017-03-12T13:44:10Z</time>
      </trkpt>
      <trkpt lat="60.25571303367" lon="11.050385823872">
        <ele>203.4</ele>
        <time>2017-03-12T13:44:23Z</time>
      </trkpt>
      <trkpt lat="60.255747734736" lon="11.050000591748">
        <ele>202.8</ele>
        <time>2017-03-12T13:44:36Z</time>
      </trkpt>
      <trkpt lat="60.25575661955" lon="11.049940744982">
        <ele>202.6</ele>
        <time>2017-03-12T13:44:38Z</time>
      </trkpt>
      <trkpt lat="60.255790733883" lon="11.049585771517">
        <ele>202.4</ele>
        <time>2017-03-12T13:44:50Z</time>
      </trkpt>
      <trkpt lat="60.255805066932" lon="11.049203724515">
        <ele>201.2</ele>
        <time>2017-03-12T13:45:02Z</time>
      </trkpt>
      <trkpt lat="60.255833230116" lon="11.048832238707">
        <ele>199.6</ele>
        <time>2017-03-12T13:45:14Z</time>
      </trkpt>
      <trkpt lat="60.255848652812" lon="11.048463351288">
        <ele>200</ele>
        <time>2017-03-12T13:45:26Z</time>
      </trkpt>
      <trkpt lat="60.255859968377" lon="11.048076694241">
        <ele>202.2</ele>
        <time>2017-03-12T13:45:41Z</time>
      </trkpt>
      <trkpt lat="60.255886790457" lon="11.047700849845">
        <ele>202.4</ele>
        <time>2017-03-12T13:45:53Z</time>
      </trkpt>
      <trkpt lat="60.255903889533" lon="11.047323580526">
        <ele>202.6</ele>
        <time>2017-03-12T13:46:05Z</time>
      </trkpt>
      <trkpt lat="60.255942362454" lon="11.046966260129">
        <ele>202.4</ele>
        <time>2017-03-12T13:46:17Z</time>
      </trkpt>
      <trkpt lat="60.255979913366" lon="11.046593936131">
        <ele>202.6</ele>
        <time>2017-03-12T13:46:30Z</time>
      </trkpt>
      <trkpt lat="60.256012938052" lon="11.046228485291">
        <ele>202.4</ele>
        <time>2017-03-12T13:46:42Z</time>
      </trkpt>
      <trkpt lat="60.256055769561" lon="11.045850377782">
        <ele>202.2</ele>
        <time>2017-03-12T13:46:55Z</time>
      </trkpt>
      <trkpt lat="60.256092398464" lon="11.045482244734">
        <ele>202.2</ele>
        <time>2017-03-12T13:47:07Z</time>
      </trkpt>
      <trkpt lat="60.256125339331" lon="11.04510455632">
        <ele>202.2</ele>
        <time>2017-03-12T13:47:18Z</time>
      </trkpt>
      <trkpt lat="60.256165320994" lon="11.044735417444">
        <ele>202.8</ele>
        <time>2017-03-12T13:47:29Z</time>
      </trkpt>
      <trkpt lat="60.256215193299" lon="11.044379019056">
        <ele>201.8</ele>
        <time>2017-03-12T13:47:41Z</time>
      </trkpt>
      <trkpt lat="60.256267747812" lon="11.044002923203">
        <ele>201.6</ele>
        <time>2017-03-12T13:47:53Z</time>
      </trkpt>
      <trkpt lat="60.2563223978" lon="11.043653062697">
        <ele>201.6</ele>
        <time>2017-03-12T13:48:04Z</time>
      </trkpt>
      <trkpt lat="60.256378640349" lon="11.043296329033">
        <ele>201.4</ele>
        <time>2017-03-12T13:48:16Z</time>
      </trkpt>
      <trkpt lat="60.256470086878" lon="11.042819063647">
        <ele>201.4</ele>
        <time>2017-03-12T13:48:32Z</time>
      </trkpt>
      <trkpt lat="60.256534711327" lon="11.042459563956">
        <ele>201.4</ele>
        <time>2017-03-12T13:48:44Z</time>
      </trkpt>
      <trkpt lat="60.256577794293" lon="11.042107943251">
        <ele>200.8</ele>
        <time>2017-03-12T13:48:56Z</time>
      </trkpt>
      <trkpt lat="60.256637389602" lon="11.041747689189">
        <ele>200.8</ele>
        <time>2017-03-12T13:49:08Z</time>
      </trkpt>
      <trkpt lat="60.256694135065" lon="11.041394643561">
        <ele>201.4</ele>
        <time>2017-03-12T13:49:19Z</time>
      </trkpt>
      <trkpt lat="60.256765129758" lon="11.041036736431">
        <ele>202</ele>
        <time>2017-03-12T13:49:31Z</time>
      </trkpt>
      <trkpt lat="60.256831682044" lon="11.040686205373">
        <ele>202.2</ele>
        <time>2017-03-12T13:49:43Z</time>
      </trkpt>
      <trkpt lat="60.25689907252" lon="11.040349169174">
        <ele>202.2</ele>
        <time>2017-03-12T13:49:55Z</time>
      </trkpt>
      <trkpt lat="60.256958332553" lon="11.040000901229">
        <ele>202.4</ele>
        <time>2017-03-12T13:50:07Z</time>
      </trkpt>
      <trkpt lat="60.257028405237" lon="11.039645760126">
        <ele>202.8</ele>
        <time>2017-03-12T13:50:19Z</time>
      </trkpt>
      <trkpt lat="60.257040978087" lon="11.03959597164">
        <ele>202.8</ele>
        <time>2017-03-12T13:50:21Z</time>
      </trkpt>
      <trkpt lat="60.257092023858" lon="11.03922968261">
        <ele>201.2</ele>
        <time>2017-03-12T13:50:34Z</time>
      </trkpt>
      <trkpt lat="60.25713795667" lon="11.03886842272">
        <ele>199.4</ele>
        <time>2017-03-12T13:50:47Z</time>
      </trkpt>
      <trkpt lat="60.257151283891" lon="11.038727187705">
        <ele>199.2</ele>
        <time>2017-03-12T13:50:53Z</time>
      </trkpt>
      <trkpt lat="60.256995380551" lon="11.038542869724">
        <ele>201.4</ele>
        <time>2017-03-12T13:51:09Z</time>
      </trkpt>
      <trkpt lat="60.256896055036" lon="11.038221759135">
        <ele>203</ele>
        <time>2017-03-12T13:51:21Z</time>
      </trkpt>
      <trkpt lat="60.256921619831" lon="11.03786510929">
        <ele>201.6</ele>
        <time>2017-03-12T13:51:33Z</time>
      </trkpt>
      <trkpt lat="60.256970653946" lon="11.037510806377">
        <ele>201.4</ele>
        <time>2017-03-12T13:51:45Z</time>
      </trkpt>
      <trkpt lat="60.257021615898" lon="11.037158347482">
        <ele>201.6</ele>
        <time>2017-03-12T13:51:57Z</time>
      </trkpt>
      <trkpt lat="60.257108703839" lon="11.036814773401">
        <ele>202</ele>
        <time>2017-03-12T13:52:10Z</time>
      </trkpt>
      <trkpt lat="60.257138878679" lon="11.03643515715">
        <ele>202.2</ele>
        <time>2017-03-12T13:52:23Z</time>
      </trkpt>
      <trkpt lat="60.257058160982" lon="11.036100970797">
        <ele>203.4</ele>
        <time>2017-03-12T13:52:38Z</time>
      </trkpt>
      <trkpt lat="60.256937545441" lon="11.035821937346">
        <ele>203.2</ele>
        <time>2017-03-12T13:52:51Z</time>
      </trkpt>
      <trkpt lat="60.256831346768" lon="11.035511220313">
        <ele>202.6</ele>
        <time>2017-03-12T13:53:05Z</time>
      </trkpt>
      <trkpt lat="60.256734619642" lon="11.035202347298">
        <ele>202.6</ele>
        <time>2017-03-12T13:53:17Z</time>
      </trkpt>
      <trkpt lat="60.256714586901" lon="11.035059268265">
        <ele>202.6</ele>
        <time>2017-03-12T13:53:22Z</time>
      </trkpt>
      <trkpt lat="60.25660822059" lon="11.03475877715">
        <ele>203.6</ele>
        <time>2017-03-12T13:53:34Z</time>
      </trkpt>
      <trkpt lat="60.256496908958" lon="11.03444277952">
        <ele>203.4</ele>
        <time>2017-03-12T13:53:47Z</time>
      </trkpt>
      <trkpt lat="60.256372270105" lon="11.034162237327">
        <ele>202.8</ele>
        <time>2017-03-12T13:54:01Z</time>
      </trkpt>
      <trkpt lat="60.256327343121" lon="11.033969453627">
        <ele>202.8</ele>
        <time>2017-03-12T13:54:09Z</time>
      </trkpt>
      <trkpt lat="60.256213684557" lon="11.033689665805">
        <ele>202.2</ele>
        <time>2017-03-12T13:54:24Z</time>
      </trkpt>
      <trkpt lat="60.256041017417" lon="11.033773484805">
        <ele>202.2</ele>
        <time>2017-03-12T13:54:37Z</time>
      </trkpt>
      <trkpt lat="60.255861141843" lon="11.033899464762">
        <ele>203</ele>
        <time>2017-03-12T13:54:52Z</time>
      </trkpt>
      <trkpt lat="60.25568285883" lon="11.033889993215">
        <ele>203.8</ele>
        <time>2017-03-12T13:55:04Z</time>
      </trkpt>
      <trkpt lat="60.255552855561" lon="11.033617078551">
        <ele>201.4</ele>
        <time>2017-03-12T13:55:16Z</time>
      </trkpt>
      <trkpt lat="60.255450512562" lon="11.033291190279">
        <ele>202</ele>
        <time>2017-03-12T13:55:29Z</time>
      </trkpt>
      <trkpt lat="60.255340793491" lon="11.03297007969">
        <ele>201.8</ele>
        <time>2017-03-12T13:55:41Z</time>
      </trkpt>
      <trkpt lat="60.255233421352" lon="11.032679395398">
        <ele>201.6</ele>
        <time>2017-03-12T13:55:53Z</time>
      </trkpt>
      <trkpt lat="60.255134431113" lon="11.032378652826">
        <ele>201.4</ele>
        <time>2017-03-12T13:56:05Z</time>
      </trkpt>
      <trkpt lat="60.255029322087" lon="11.032050752898">
        <ele>198.2</ele>
        <time>2017-03-12T13:56:19Z</time>
      </trkpt>
      <trkpt lat="60.254936785911" lon="11.031718745839">
        <ele>198.6</ele>
        <time>2017-03-12T13:56:32Z</time>
      </trkpt>
      <trkpt lat="60.254822708252" lon="11.031425044063">
        <ele>199.4</ele>
        <time>2017-03-12T13:56:44Z</time>
      </trkpt>
      <trkpt lat="60.254710642249" lon="11.031139221273">
        <ele>199.8</ele>
        <time>2017-03-12T13:56:56Z</time>
      </trkpt>
      <trkpt lat="60.254595810219" lon="11.030826408765">
        <ele>200</ele>
        <time>2017-03-12T13:57:09Z</time>
      </trkpt>
      <trkpt lat="60.25448927627" lon="11.030518960673">
        <ele>200.2</ele>
        <time>2017-03-12T13:57:21Z</time>
      </trkpt>
      <trkpt lat="60.254355417327" lon="11.030239172851">
        <ele>200.2</ele>
        <time>2017-03-12T13:57:34Z</time>
      </trkpt>
      <trkpt lat="60.254216613063" lon="11.029972963707">
        <ele>200</ele>
        <time>2017-03-12T13:57:47Z</time>
      </trkpt>
      <trkpt lat="60.254068756347" lon="11.029728212227">
        <ele>199.8</ele>
        <time>2017-03-12T13:58:00Z</time>
      </trkpt>
      <trkpt lat="60.253925677314" lon="11.029509025542">
        <ele>199.2</ele>
        <time>2017-03-12T13:58:13Z</time>
      </trkpt>
      <trkpt lat="60.253763739006" lon="11.029307357028">
        <ele>199.2</ele>
        <time>2017-03-12T13:58:27Z</time>
      </trkpt>
      <trkpt lat="60.25359744211" lon="11.029120356839">
        <ele>200.4</ele>
        <time>2017-03-12T13:58:40Z</time>
      </trkpt>
      <trkpt lat="60.253428630644" lon="11.028957412703">
        <ele>201.6</ele>
        <time>2017-03-12T13:58:52Z</time>
      </trkpt>
      <trkpt lat="60.25326468068" lon="11.028780051699">
        <ele>201.8</ele>
        <time>2017-03-12T13:59:04Z</time>
      </trkpt>
      <trkpt lat="60.253108525883" lon="11.028601684867">
        <ele>200.6</ele>
        <time>2017-03-12T13:59:16Z</time>
      </trkpt>
      <trkpt lat="60.252945414109" lon="11.028403955846">
        <ele>200.8</ele>
        <time>2017-03-12T13:59:28Z</time>
      </trkpt>
      <trkpt lat="60.252787415294" lon="11.028225840471">
        <ele>200.4</ele>
        <time>2017-03-12T13:59:41Z</time>
      </trkpt>
      <trkpt lat="60.252687503046" lon="11.02810187217">
        <ele>199.6</ele>
        <time>2017-03-12T13:59:50Z</time>
      </trkpt>
      <trkpt lat="60.252527995489" lon="11.027899114009">
        <ele>198.2</ele>
        <time>2017-03-12T14:00:06Z</time>
      </trkpt>
      <trkpt lat="60.252513997716" lon="11.027887630806">
        <ele>197.8</ele>
        <time>2017-03-12T14:00:07Z</time>
      </trkpt>
      <trkpt lat="60.252340408567" lon="11.027721836824">
        <ele>195.4</ele>
        <time>2017-03-12T14:00:19Z</time>
      </trkpt>
      <trkpt lat="60.252185511055" lon="11.027531316237">
        <ele>196.2</ele>
        <time>2017-03-12T14:00:31Z</time>
      </trkpt>
      <trkpt lat="60.252026506412" lon="11.027361834219">
        <ele>197.8</ele>
        <time>2017-03-12T14:00:44Z</time>
      </trkpt>
      <trkpt lat="60.251863394638" lon="11.027188328889">
        <ele>199.4</ele>
        <time>2017-03-12T14:00:57Z</time>
      </trkpt>
      <trkpt lat="60.251746299495" lon="11.027105012803">
        <ele>199</ele>
        <time>2017-03-12T14:01:06Z</time>
      </trkpt>
      <trkpt lat="60.251570028138" lon="11.026987414746">
        <ele>198.6</ele>
        <time>2017-03-12T14:01:19Z</time>
      </trkpt>
      <trkpt lat="60.251391074573" lon="11.026879288236">
        <ele>198.8</ele>
        <time>2017-03-12T14:01:33Z</time>
      </trkpt>
      <trkpt lat="60.251211450456" lon="11.026787003517">
        <ele>197.2</ele>
        <time>2017-03-12T14:01:46Z</time>
      </trkpt>
      <trkpt lat="60.251036268746" lon="11.02672807876">
        <ele>196.8</ele>
        <time>2017-03-12T14:01:58Z</time>
      </trkpt>
      <trkpt lat="60.250948677891" lon="11.027056900697">
        <ele>196.6</ele>
        <time>2017-03-12T14:02:12Z</time>
      </trkpt>
      <trkpt lat="60.250859578294" lon="11.027375748173">
        <ele>194</ele>
        <time>2017-03-12T14:02:26Z</time>
      </trkpt>
      <trkpt lat="60.250779363511" lon="11.027699038056">
        <ele>192.8</ele>
        <time>2017-03-12T14:02:39Z</time>
      </trkpt>
      <trkpt lat="60.25074424335" lon="11.027840105433">
        <ele>193.8</ele>
        <time>2017-03-12T14:02:45Z</time>
      </trkpt>
      <trkpt lat="60.250634943374" lon="11.02808343199">
        <ele>199.2</ele>
        <time>2017-03-12T14:02:58Z</time>
      </trkpt>
      <trkpt lat="60.250453475239" lon="11.028122407825">
        <ele>198.4</ele>
        <time>2017-03-12T14:03:13Z</time>
      </trkpt>
      <trkpt lat="60.250276784787" lon="11.028223325901">
        <ele>198.6</ele>
        <time>2017-03-12T14:03:26Z</time>
      </trkpt>
      <trkpt lat="60.250264379575" lon="11.028229779964">
        <ele>198.6</ele>
        <time>2017-03-12T14:03:27Z</time>
      </trkpt>
      <trkpt lat="60.250083581992" lon="11.02835835831">
        <ele>199.2</ele>
        <time>2017-03-12T14:03:42Z</time>
      </trkpt>
      <trkpt lat="60.249906556264" lon="11.028453660513">
        <ele>200</ele>
        <time>2017-03-12T14:03:56Z</time>
      </trkpt>
      <trkpt lat="60.249744366499" lon="11.028517865867">
        <ele>198.8</ele>
        <time>2017-03-12T14:04:09Z</time>
      </trkpt>
      <trkpt lat="60.249628109546" lon="11.02862322635">
        <ele>199.2</ele>
        <time>2017-03-12T14:04:21Z</time>
      </trkpt>
      <trkpt lat="60.249560467613" lon="11.028957580341">
        <ele>200.2</ele>
        <time>2017-03-12T14:04:34Z</time>
      </trkpt>
      <trkpt lat="60.249635737075" lon="11.029253209954">
        <ele>198.6</ele>
        <time>2017-03-12T14:04:48Z</time>
      </trkpt>
      <trkpt lat="60.249790718406" lon="11.029446999482">
        <ele>195.2</ele>
        <time>2017-03-12T14:05:03Z</time>
      </trkpt>
      <trkpt lat="60.249911753042" lon="11.029600220614">
        <ele>194</ele>
        <time>2017-03-12T14:05:14Z</time>
      </trkpt>
    </trkseg>
  </trk>
</gpx>